KCMY/CMY METAR and TAF weather

Enter ICAO airport designator
Station Type Date Time Source
KCMY METAR 2021/05/12 04:55 UTC NOAA

KCMY 120455Z AUTO 00000KT 10SM 00/M03 A3041 RMK AO2 T00031026


Station Type Date Time Source
KCMY Decoded METAR 2021/05/12 04:55 UTC NOAA

Sparta, Sparta / Fort McCoy Airport, WI, United States (KCMY) 43-57-30N 090-44-16W
May 12, 2021 - 12:55 AM EDT / 2021.05.12 0455 UTC
Wind: Calm:0
Visibility: 10 mile(s):0
Temperature: 32.5 F (0.3 C)
Dew Point: 27.3 F (-2.6 C)
Relative Humidity: 80%
Pressure (altimeter): 30.41 in. Hg (1029 hPa)
ob: KCMY 120455Z AUTO 00000KT 10SM 00/M03 A3041 RMK AO2 T00031026
cycle: 5

Station Type Date Time Source
KCMY TAF UTC NOAA

Error!

Example: see airport list